Dades meteomassalio
Diari Summary for Gener 27, 2017 Units:  English    Metric   Both
« Previous Day
Next Day »
Diari Semanal Mensual Anual Personalitzat
  Maxima: Minima: Mijana:
Temperatura: TemperatureC °F 5.4 °F 8.8 °F
Rosada: DewpointC °F 2.7 °F 6 °F
Humitat: Humidity % 67 % 83 %
Velocitat del vent: WindSpeedKMH mph 0.0 mph 5.2 mph
Racha vent: WindSpeedGustKMH mph - -
Vent:- - SSE
Pressio: PressurehPa in 1009.0 in -
Pluja: 0.5 in    
Historical Graphs
 
 
Tabular Data for Gener 27, 2017
Time Temperature Dew Point Pressure Wind Wind Speed Wind Gust Humidity Rainfall Rate (Hourly) solar Conditions
TemperatureC °F DewpointC °F PressurehPa in Calm     Humidity % HourlyPrecipMM in SolarRadiationWatts/m^2 W/m2 Conditions
00:02 6.5 °F 3.5 °F 1017.2 in ESE 5.6 mph   81 % 0.0 in 0.0 W/m2 CLR
00:07 6.4 °F 3.4 °F 1017.2 in Calm     81 % 0.0 in 0.0 W/m2 CLR
00:12 6.4 °F 3.4 °F 1016.8 in Calm     81 % 0.0 in 0.0 W/m2 CLR
00:17 6.2 °F 3.2 °F 1016.8 in Calm     81 % 0.0 in 0.0 W/m2 CLR
00:22 6.2 °F 3.2 °F 1016.8 in Calm     81 % 0.0 in 0.0 W/m2 CLR
00:27 6.2 °F 3.4 °F 1016.8 in ESE 3.7 mph 3.7 mph 82 % 0.0 in 0.0 W/m2 CLR
00:32 6.4 °F 3.6 °F 1016.8 in ESE 6.4 mph 6.4 mph 82 % 0.0 in 0.0 W/m2 CLR
00:37 6.7 °F 3.6 °F 1016.8 in ESE 5.6 mph 5.6 mph 81 % 0.0 in 0.0 W/m2 CLR
00:42 6.7 °F 3.6 °F 1016.8 in Calm     81 % 0.0 in 0.0 W/m2 CLR
00:48 6.6 °F 3.6 °F 1016.8 in SE 3.2 mph 3.2 mph 81 % 0.0 in 0.0 W/m2 CLR
00:53 6.7 °F 3.6 °F 1016.8 in SE 7.4 mph 7.4 mph 81 % 0.0 in 0.0 W/m2 CLR
00:58 6.8 °F 3.6 °F 1016.8 in ESE 1.9 mph   80 % 0.0 in 0.0 W/m2 CLR
00:59 6.8 °F 3.4 °F 1016.8 in Calm     79 % 0.0 in 0.0 W/m2 CLR
01:01 6.8 °F 3.4 °F 1016.8 in Calm     79 % 0.0 in 0.0 W/m2 CLR
01:03 6.8 °F 3.4 °F 1016.8 in Calm     79 % 0.0 in 0.0 W/m2 CLR
01:08 6.8 °F 3.4 °F 1016.8 in Calm     79 % 0.0 in 0.0 W/m2 CLR
01:13 6.7 °F 3.4 °F 1016.8 in Calm     80 % 0.0 in 0.0 W/m2 CLR
01:18 6.6 °F 3.3 °F 1016.8 in Calm     80 % 0.0 in 0.0 W/m2 CLR
01:23 6.4 °F 3.2 °F 1016.8 in Calm     80 % 0.0 in 0.0 W/m2 CLR
01:28 6.4 °F 3.4 °F 1016.8 in ESE 6.4 mph 6.4 mph 81 % 0.0 in 0.0 W/m2 CLR
01:33 6.5 °F 3.3 °F 1016.8 in Calm     80 % 0.0 in 0.0 W/m2 CLR
01:38 6.2 °F 3.0 °F 1016.8 in Calm     80 % 0.0 in 0.0 W/m2 CLR
01:43 6.3 °F 3.3 °F 1016.8 in Calm     81 % 0.0 in 0.0 W/m2 CLR
01:48 6.1 °F 3.1 °F 1016.8 in Calm     81 % 0.0 in 0.0 W/m2 CLR
01:53 6.0 °F 3.0 °F 1016.8 in Calm     81 % 0.0 in 0.0 W/m2 CLR
01:58 5.8 °F 3.0 °F 1016.8 in Calm     82 % 0.0 in 0.0 W/m2 CLR
02:03 5.7 °F 2.9 °F 1016.8 in Calm     82 % 0.0 in 0.0 W/m2 CLR
02:08 5.5 °F 2.7 °F 1016.8 in Calm     82 % 0.0 in 0.0 W/m2 CLR
02:13 5.4 °F 2.9 °F 1016.5 in Calm     84 % 0.0 in 0.0 W/m2 CLR
02:18 5.5 °F 3.0 °F 1016.5 in Calm     84 % 0.0 in 0.0 W/m2 CLR
02:23 5.6 °F 2.9 °F 1016.5 in Calm     83 % 0.0 in 0.0 W/m2 CLR
02:28 5.6 °F 3.1 °F 1016.5 in Calm     84 % 0.0 in 0.0 W/m2 CLR
02:33 5.6 °F 3.1 °F 1016.5 in Calm     84 % 0.0 in 0.0 W/m2 CLR
02:38 5.6 °F 3.1 °F 1016.5 in Calm     84 % 0.0 in 0.0 W/m2 CLR
02:43 5.6 °F 3.1 °F 1016.5 in Calm     84 % 0.0 in 0.0 W/m2 CLR
02:48 5.7 °F 3.2 °F 1016.5 in Calm     84 % 0.0 in 0.0 W/m2 CLR
02:53 5.8 °F 3.3 °F 1016.1 in Calm     84 % 0.0 in 0.0 W/m2 CLR
02:58 6.0 °F 3.3 °F 1016.1 in Calm     83 % 0.0 in 0.0 W/m2 CLR
03:08 6.2 °F 3.5 °F 1016.1 in Calm     83 % 0.0 in 0.0 W/m2 CLR
03:13 6.2 °F 3.6 °F 1016.1 in Calm     83 % 0.0 in 0.0 W/m2 CLR
03:18 6.4 °F 3.7 °F 1015.8 in Calm     83 % 0.0 in 0.0 W/m2 CLR
03:23 6.4 °F 3.8 °F 1015.8 in Calm     83 % 0.0 in 0.0 W/m2 CLR
03:28 6.5 °F 4.0 °F 1015.8 in Calm     84 % 0.0 in 0.0 W/m2 CLR
03:38 6.9 °F 4.2 °F 1015.8 in Calm     83 % 0.0 in 0.0 W/m2 CLR
03:43 7.0 °F 4.3 °F 1015.8 in Calm     83 % 0.0 in 0.0 W/m2 CLR
03:48 7.1 °F 4.4 °F 1015.5 in Calm     83 % 0.0 in 0.0 W/m2 CLR
03:53 7.2 °F 4.5 °F 1015.5 in Calm     83 % 0.0 in 0.0 W/m2 CLR
03:58 7.4 °F 4.7 °F 1015.5 in East 5.6 mph 5.6 mph 83 % 0.0 in 0.0 W/m2 CLR
04:03 7.5 °F 4.8 °F 1015.5 in ESE 3.7 mph 3.7 mph 83 % 0.0 in 0.0 W/m2 CLR
04:08 7.7 °F 4.9 °F 1015.5 in ESE 18.5 mph 18.5 mph 83 % 0.0 in 0.0 W/m2 CLR
04:14 7.9 °F 5.2 °F 1015.1 in ESE 7.4 mph 7.4 mph 83 % 0.0 in 0.0 W/m2 CLR
04:19 8.0 °F 5.1 °F 1015.1 in East 1.9 mph   82 % 0.0 in 0.0 W/m2 CLR
04:24 7.9 °F 5.2 °F 1015.1 in Calm     83 % 0.0 in 0.0 W/m2 CLR
04:25 8.0 °F 5.3 °F 1015.1 in Calm     83 % 0.0 in 0.0 W/m2 CLR
04:30 7.9 °F 5.2 °F 1015.1 in Calm   0.6 mph 83 % 0.0 in 0.0 W/m2 CLR
04:35 7.8 °F 5.3 °F 1015.1 in Calm     84 % 0.0 in 0.0 W/m2 CLR
04:40 7.8 °F 5.3 °F 1015.1 in Calm     84 % 0.0 in 0.0 W/m2 CLR
04:45 7.8 °F 5.4 °F 1015.1 in Calm     85 % 0.0 in 0.0 W/m2 CLR
04:50 7.8 °F 5.4 °F 1014.8 in Calm   0.8 mph 85 % 0.0 in 0.0 W/m2 CLR
04:55 7.7 °F 5.5 °F 1014.8 in ENE 3.7 mph 3.7 mph 86 % 0.0 in 0.0 W/m2 CLR
05:00 7.7 °F 5.5 °F 1014.8 in Calm     86 % 0.0 in 0.0 W/m2 CLR
05:05 7.6 °F 5.6 °F 1014.8 in Calm     87 % 0.0 in 0.0 W/m2 CLR
05:10 7.6 °F 5.6 °F 1014.8 in Calm     87 % 0.0 in 0.0 W/m2 CLR
05:15 7.6 °F 5.6 °F 1014.8 in Calm     87 % 0.0 in 0.0 W/m2 CLR
05:20 7.5 °F 5.5 °F 1014.8 in NE 3.7 mph   87 % 0.0 in 0.0 W/m2 CLR
05:25 7.4 °F 5.6 °F 1014.4 in NE 7.4 mph 7.4 mph 88 % 0.0 in 0.0 W/m2 CLR
05:30 7.4 °F 5.6 °F 1014.4 in Calm   3.1 mph 88 % 0.0 in 0.0 W/m2 CLR
05:35 7.4 °F 5.6 °F 1014.4 in Calm     88 % 0.0 in 0.0 W/m2 CLR
05:40 7.4 °F 5.6 °F 1014.4 in Calm     88 % 0.0 in 0.0 W/m2 CLR
05:45 7.7 °F 6.0 °F 1014.4 in ESE 18.5 mph 18.5 mph 89 % 0.0 in 0.0 W/m2 CLR
05:50 8.1 °F 6.4 °F 1014.4 in SE 11.1 mph 11.1 mph 89 % 0.0 in 0.0 W/m2 CLR
05:55 8.2 °F 6.3 °F 1014.4 in SE 4.8 mph 4.8 mph 88 % 0.0 in 0.0 W/m2 CLR
06:00 8.2 °F 6.3 °F 1014.4 in ESE 5.6 mph 5.6 mph 88 % 0.0 in 0.0 W/m2 CLR
06:05 8.3 °F 6.4 °F 1014.4 in ESE 6.4 mph 6.4 mph 88 % 0.0 in 0.0 W/m2 CLR
06:10 8.3 °F 6.4 °F 1014.4 in ESE 3.7 mph 3.7 mph 88 % 0.0 in 0.0 W/m2 CLR
06:15 8.2 °F 6.4 °F 1014.4 in ESE 5.6 mph   89 % 0.0 in 0.0 W/m2 CLR
06:20 8.1 °F 6.4 °F 1014.4 in ESE 9.3 mph 9.3 mph 89 % 0.0 in 0.0 W/m2 CLR
06:25 8.1 °F 6.5 °F 1014.4 in ESE 9.3 mph 9.3 mph 90 % 0.0 in 0.0 W/m2 CLR
06:30 8.0 °F 6.4 °F 1014.4 in ESE 5.6 mph 5.6 mph 90 % 0.3 in 0.0 W/m2 RA
06:35 7.9 °F 6.4 °F 1014.4 in Calm     90 % 0.3 in 0.0 W/m2
06:40 7.9 °F 6.5 °F 1014.4 in Calm     91 % 0.3 in 0.0 W/m2 CLR
06:45 7.8 °F 6.4 °F 1014.4 in ESE 3.7 mph 3.7 mph 91 % 0.3 in 0.0 W/m2 CLR
06:50 7.8 °F 6.4 °F 1014.4 in Calm     91 % 0.5 in 0.0 W/m2 RA
06:55 7.8 °F 6.4 °F 1014.1 in Calm     91 % 0.5 in 0.0 W/m2 CLR
07:00 7.8 °F 6.6 °F 1014.1 in East 5.6 mph 5.6 mph 92 % 0.5 in 0.0 W/m2 CLR
07:05 7.8 °F 6.6 °F 1013.8 in Calm     92 % 0.5 in 0.0 W/m2 CLR
07:10 7.8 °F 6.6 °F 1013.8 in Calm     92 % 0.5 in 0.0 W/m2 CLR
07:15 7.8 °F 6.6 °F 1013.8 in Calm     92 % 0.5 in 0.0 W/m2 CLR
07:20 7.7 °F 6.5 °F 1013.8 in Calm     92 % 0.5 in 0.0 W/m2 CLR
07:25 7.7 °F 6.5 °F 1013.4 in Calm     92 % 0.5 in 0.0 W/m2 CLR
07:30 7.7 °F 6.5 °F 1013.4 in Calm     92 % 0.3 in 0.0 W/m2 CLR
07:35 7.7 °F 6.4 °F 1013.4 in Calm     92 % 0.3 in 0.0 W/m2 CLR
07:40 7.6 °F 6.4 °F 1013.4 in Calm     92 % 0.3 in 0.0 W/m2 CLR
07:45 7.6 °F 6.4 °F 1013.4 in Calm     92 % 0.3 in 0.0 W/m2 CLR
07:50 7.6 °F 6.4 °F 1013.4 in Calm     92 % 0.0 in 0.0 W/m2 CLR
07:55 7.7 °F 6.4 °F 1013.4 in Calm     92 % 0.0 in 0.0 W/m2 CLR
08:00 7.7 °F 6.5 °F 1013.4 in SE 5.6 mph 5.6 mph 92 % 0.0 in 0.0 W/m2 CLR
08:05 7.8 °F 6.6 °F 1013.4 in Calm     92 % 0.0 in 0.0 W/m2 OVC
08:10 7.8 °F 6.6 °F 1013.4 in Calm     92 % 0.0 in 0.0 W/m2 OVC
08:15 7.9 °F 6.7 °F 1013.4 in Calm     92 % 0.0 in 0.0 W/m2 OVC
08:20 7.9 °F 6.7 °F 1013.4 in Calm     92 % 0.3 in 0.0 W/m2 RA
08:25 7.9 °F 6.7 °F 1013.4 in Calm     92 % 0.3 in 0.0 W/m2
08:35 8.0 °F 6.8 °F 1013.4 in Calm     92 % 0.3 in 9.0 W/m2 BKN
08:40 8.1 °F 6.9 °F 1013.1 in Calm     92 % 0.3 in 11.0 W/m2 BKN
08:45 8.1 °F 6.9 °F 1013.4 in East 11.1 mph 11.1 mph 92 % 0.3 in 7.0 W/m2 BKN
08:50 8.2 °F 6.8 °F 1013.4 in ESE 5.6 mph 5.6 mph 91 % 0.3 in 14.0 W/m2 BKN
08:55 8.2 °F 6.8 °F 1013.1 in ESE 5.6 mph 5.6 mph 91 % 0.3 in 30.0 W/m2 BKN
09:00 8.2 °F 6.8 °F 1013.1 in Calm     91 % 0.3 in 28.0 W/m2 BKN
09:05 8.2 °F 6.8 °F 1013.1 in Calm     91 % 0.3 in 25.0 W/m2 BKN
09:10 8.2 °F 6.8 °F 1013.1 in Calm     91 % 0.3 in 30.0 W/m2 BKN
09:15 8.1 °F 6.7 °F 1013.1 in SE 6.4 mph 6.4 mph 91 % 0.3 in 39.0 W/m2 BKN
09:20 8.2 °F 6.8 °F 1013.1 in SE 9.3 mph 9.3 mph 91 % 0.0 in 30.0 W/m2 BKN
09:25 8.4 °F 7.0 °F 1013.1 in SSE 7.4 mph 7.4 mph 91 % 0.0 in 56.0 W/m2 BKN
09:30 8.5 °F 6.9 °F 1013.1 in Calm     90 % 0.0 in 69.0 W/m2 SCT
09:35 8.6 °F 7.1 °F 1013.1 in SSE 11.1 mph 11.1 mph 90 % 0.0 in 114.0 W/m2 FEW
09:40 8.8 °F 7.1 °F 1013.1 in SE 5.6 mph 5.6 mph 89 % 0.0 in 74.0 W/m2 CLR
09:45 8.8 °F 7.1 °F 1012.8 in SE 3.7 mph 3.7 mph 89 % 0.0 in 70.0 W/m2 CLR
09:50 8.7 °F 7.0 °F 1013.1 in ESE 5.6 mph 5.6 mph 89 % 0.0 in 69.0 W/m2 FEW
09:55 8.8 °F 7.1 °F 1013.1 in SE 7.4 mph 7.4 mph 89 % 0.0 in 58.0 W/m2 FEW
10:00 8.9 °F 7.1 °F 1013.1 in SSE 9.3 mph 9.3 mph 88 % 0.0 in 53.0 W/m2 SCT
10:05 9.1 °F 7.1 °F 1013.1 in Calm     87 % 0.0 in 56.0 W/m2 SCT
10:10 9.2 °F 7.0 °F 1013.1 in Calm     86 % 0.0 in 60.0 W/m2 SCT
10:15 9.3 °F 6.9 °F 1013.1 in Calm     85 % 0.0 in 67.0 W/m2 SCT
10:20 9.3 °F 6.9 °F 1013.1 in SE 3.7 mph 3.7 mph 85 % 0.0 in 65.0 W/m2 SCT
10:25 9.3 °F 6.8 °F 1013.1 in SE 7.4 mph 7.4 mph 84 % 0.0 in 62.0 W/m2 SCT
10:30 9.4 °F 6.8 °F 1013.1 in Calm     84 % 0.0 in 60.0 W/m2 SCT
10:35 9.4 °F 6.8 °F 1013.1 in Calm     84 % 0.0 in 67.0 W/m2 SCT
10:40 9.4 °F 6.7 °F 1013.1 in SE 5.6 mph 5.6 mph 83 % 0.0 in 79.0 W/m2 FEW
10:46 9.5 °F 6.8 °F 1012.8 in SSE 13.0 mph 13.0 mph 83 % 0.0 in 88.0 W/m2 FEW
10:51 9.6 °F 6.9 °F 1012.8 in SE 13.0 mph 13.0 mph 83 % 0.0 in 74.0 W/m2 FEW
10:56 9.7 °F 6.7 °F 1012.8 in SE 18.5 mph 18.5 mph 82 % 0.0 in 54.0 W/m2 FEW
11:01 9.7 °F 6.7 °F 1012.8 in SE 9.3 mph 9.3 mph 82 % 0.0 in 53.0 W/m2 SCT
11:06 9.7 °F 6.7 °F 1012.8 in SE 9.7 mph 9.7 mph 82 % 0.0 in 54.0 W/m2 SCT
11:10 9.7 °F 6.7 °F 1012.8 in SE 13.0 mph 13.0 mph 82 % 0.0 in 58.0 W/m2 SCT
11:16 9.7 °F 6.7 °F 1012.8 in SSE 16.7 mph 16.7 mph 82 % 0.0 in 81.0 W/m2 SCT
11:20 9.8 °F 6.8 °F 1012.8 in SE 14.8 mph 14.8 mph 82 % 0.0 in 102.0 W/m2 FEW
11:25 9.9 °F 6.8 °F 1012.8 in SE 9.3 mph 9.3 mph 81 % 0.0 in 84.0 W/m2 CLR
11:30 9.9 °F 6.8 °F 1012.4 in SE 5.6 mph 5.6 mph 81 % 0.0 in 77.0 W/m2 CLR
11:35 9.9 °F 6.8 °F 1012.4 in Calm     81 % 0.0 in 72.0 W/m2 FEW
11:40 9.9 °F 6.8 °F 1012.8 in Calm     81 % 0.0 in 72.0 W/m2 FEW
11:45 10.0 °F 6.9 °F 1012.4 in Calm     81 % 0.0 in 88.0 W/m2 FEW
11:50 10.0 °F 6.9 °F 1012.8 in Calm     81 % 0.0 in 172.0 W/m2 CLR
11:55 10.1 °F 7.0 °F 1012.4 in Calm     81 % 0.0 in 172.0 W/m2 CLR
12:00 10.3 °F 7.0 °F 1012.4 in Calm     80 % 0.0 in 128.0 W/m2 CLR
12:05 10.4 °F 6.9 °F 1012.4 in Calm     79 % 0.0 in 118.0 W/m2 CLR
12:11 10.5 °F 7.0 °F 1012.4 in Calm     79 % 0.0 in 88.0 W/m2 CLR
12:16 10.6 °F 7.1 °F 1012.1 in NW 1.9 mph   79 % 0.0 in 77.0 W/m2 CLR
12:21 10.6 °F 7.1 °F 1012.1 in Calm     79 % 0.0 in 72.0 W/m2 FEW
12:26 10.6 °F 6.9 °F 1012.1 in ENE 7.4 mph   78 % 0.0 in 93.0 W/m2 FEW
12:31 10.6 °F 6.9 °F 1012.1 in ENE 4.8 mph 4.8 mph 78 % 0.0 in 93.0 W/m2 CLR
12:36 10.7 °F 7.1 °F 1012.1 in SSE 7.4 mph   78 % 0.0 in 81.0 W/m2 CLR
12:41 10.9 °F 7.0 °F 1012.1 in Calm     77 % 0.0 in 72.0 W/m2 FEW
12:46 11.0 °F 6.9 °F 1012.1 in Calm     76 % 0.0 in 51.0 W/m2 FEW
12:51 11.1 °F 6.8 °F 1012.1 in SSE 9.7 mph 9.7 mph 75 % 0.0 in 44.0 W/m2 SCT
12:56 11.2 °F 6.9 °F 1011.7 in SSE 9.3 mph 9.3 mph 75 % 0.0 in 56.0 W/m2 SCT
13:01 11.2 °F 6.9 °F 1011.7 in South 5.6 mph 5.6 mph 75 % 0.0 in 76.0 W/m2 SCT
13:06 11.2 °F 6.9 °F 1011.7 in South 4.8 mph 4.8 mph 75 % 0.0 in 88.0 W/m2 FEW
13:11 11.2 °F 6.9 °F 1011.4 in SSE 5.6 mph 5.6 mph 75 % 0.0 in 95.0 W/m2 FEW
13:16 11.2 °F 7.2 °F 1011.4 in SE 7.4 mph 7.4 mph 76 % 0.0 in 113.0 W/m2 CLR
13:21 11.2 °F 7.2 °F 1011.1 in SE 7.4 mph 7.4 mph 76 % 0.0 in 153.0 W/m2 CLR
13:26 11.3 °F 7.4 °F 1011.1 in ESE 5.6 mph 5.6 mph 77 % 0.0 in 199.0 W/m2 CLR
13:31 11.3 °F 7.4 °F 1011.1 in ESE 13.0 mph 13.0 mph 77 % 0.0 in 183.0 W/m2 CLR
13:36 11.4 °F 7.5 °F 1010.7 in ESE 11.1 mph 11.1 mph 77 % 0.0 in 183.0 W/m2 CLR
13:41 11.4 °F 7.5 °F 1010.7 in ESE 11.1 mph 11.1 mph 77 % 0.0 in 186.0 W/m2 CLR
13:46 11.4 °F 7.7 °F 1010.7 in ESE 5.6 mph 5.6 mph 78 % 0.0 in 207.0 W/m2 CLR
13:51 11.4 °F 7.5 °F 1010.7 in SE 16.7 mph 16.7 mph 77 % 0.0 in 306.0 W/m2 CLR
13:56 11.4 °F 7.7 °F 1010.7 in SE 7.4 mph 7.4 mph 78 % 0.0 in 236.0 W/m2 CLR
14:01 11.3 °F 7.8 °F 1010.7 in ESE 9.7 mph 9.7 mph 79 % 0.0 in 230.0 W/m2 CLR
14:06 11.2 °F 7.7 °F 1010.7 in ESE 9.7 mph 9.7 mph 79 % 0.0 in 225.0 W/m2 CLR
14:11 11.2 °F 7.8 °F 1010.4 in ESE 11.1 mph 11.1 mph 80 % 0.0 in 234.0 W/m2 CLR
14:16 11.1 °F 7.9 °F 1010.4 in ESE 13.0 mph 13.0 mph 81 % 0.0 in 241.0 W/m2 CLR
14:21 11.1 °F 7.9 °F 1010.0 in SE 18.5 mph 18.5 mph 81 % 0.0 in 225.0 W/m2 CLR
14:26 11.2 °F 8.0 °F 1010.0 in ESE 13.0 mph 13.0 mph 81 % 0.0 in 301.0 W/m2 CLR
14:31 11.3 °F 8.4 °F 1010.0 in ESE 9.3 mph 9.3 mph 82 % 0.0 in 352.0 W/m2 CLR
14:36 11.5 °F 8.3 °F 1009.7 in ESE 9.3 mph 9.3 mph 81 % 0.0 in 355.0 W/m2 CLR
14:41 11.6 °F 8.4 °F 1009.7 in ESE 9.3 mph 9.3 mph 81 % 0.0 in 336.0 W/m2 CLR
14:46 11.6 °F 8.3 °F 1009.7 in ESE 13.0 mph 13.0 mph 80 % 0.0 in 272.0 W/m2 CLR
14:51 11.7 °F 8.3 °F 1009.7 in SE 9.3 mph 9.3 mph 80 % 0.0 in 334.0 W/m2 CLR
14:56 11.7 °F 8.4 °F 1009.7 in ESE 16.7 mph 16.7 mph 80 % 0.0 in 301.0 W/m2 CLR
15:01 11.7 °F 8.3 °F 1009.7 in ESE 14.8 mph 14.8 mph 80 % 0.0 in 413.0 W/m2 CLR
15:06 12.0 °F 8.7 °F 1009.4 in ESE 13.0 mph 13.0 mph 80 % 0.0 in 325.0 W/m2 CLR
15:11 11.9 °F 8.3 °F 1009.4 in ESE 11.1 mph 11.1 mph 79 % 0.0 in 301.0 W/m2 CLR
15:16 12.0 °F 8.4 °F 1009.4 in ESE 11.1 mph 11.1 mph 79 % 0.0 in 237.0 W/m2 CLR
15:21 12.0 °F 8.1 °F 1009.4 in SE 13.0 mph 13.0 mph 77 % 0.0 in 218.0 W/m2 CLR
15:26 12.0 °F 8.3 °F 1009.4 in ESE 13.0 mph 13.0 mph 78 % 0.0 in 227.0 W/m2 CLR
15:31 12.0 °F 8.1 °F 1009.4 in ESE 11.1 mph 11.1 mph 77 % 0.0 in 229.0 W/m2 CLR
15:36 12.1 °F 8.3 °F 1009.4 in ESE 6.4 mph 6.4 mph 78 % 0.0 in 278.0 W/m2 CLR
15:41 12.1 °F 8.5 °F 1009.4 in East 5.6 mph   79 % 0.0 in 262.0 W/m2 CLR
15:46 12.2 °F 8.6 °F 1009.4 in ESE 7.4 mph 7.4 mph 79 % 0.0 in 262.0 W/m2 CLR
15:51 12.3 °F 8.4 °F 1009.4 in East 7.4 mph 7.4 mph 77 % 0.0 in 241.0 W/m2 CLR
15:56 12.4 °F 8.3 °F 1009.4 in Calm     76 % 0.0 in 221.0 W/m2 CLR
16:01 12.6 °F 8.5 °F 1009.4 in Calm     76 % 0.0 in 251.0 W/m2 CLR
16:06 12.7 °F 8.8 °F 1009.4 in East 1.9 mph 1.9 mph 77 % 0.0 in 134.0 W/m2 CLR
16:16 12.6 °F 8.9 °F 1009.4 in Calm     78 % 0.0 in 250.0 W/m2 CLR
16:21 12.6 °F 8.9 °F 1009.4 in Calm     78 % 0.0 in 185.0 W/m2 CLR
16:26 12.6 °F 8.7 °F 1009.4 in Calm     77 % 0.0 in 116.0 W/m2 CLR
16:31 12.6 °F 8.5 °F 1009.4 in Calm     76 % 0.0 in 90.0 W/m2 CLR
16:36 12.5 °F 8.4 °F 1009.4 in Calm     76 % 0.0 in 72.0 W/m2 CLR
16:41 12.5 °F 7.2 °F 1009.4 in SE 9.3 mph 9.3 mph 70 % 0.0 in 62.0 W/m2 FEW
16:46 12.6 °F 6.8 °F 1009.4 in SSE 9.3 mph 9.3 mph 68 % 0.0 in 54.0 W/m2 SCT
16:51 12.6 °F 6.7 °F 1009.4 in SSE 11.3 mph 11.3 mph 67 % 0.0 in 54.0 W/m2 SCT
16:56 12.6 °F 6.7 °F 1009.4 in SSE 5.6 mph 5.6 mph 67 % 0.0 in 111.0 W/m2 SCT
17:01 12.7 °F 6.7 °F 1009.4 in SSE 11.1 mph 11.1 mph 67 % 0.0 in 127.0 W/m2 FEW
17:06 12.6 °F 6.7 °F 1009.4 in SSE 8.0 mph 8.0 mph 67 % 0.0 in 93.0 W/m2 CLR
17:11 12.5 °F 6.8 °F 1009.4 in SSE 11.3 mph 11.3 mph 68 % 0.0 in 67.0 W/m2 FEW
17:16 12.3 °F 6.6 °F 1009.4 in SSE 9.3 mph 9.3 mph 68 % 0.0 in 63.0 W/m2 SCT
17:22 12.3 °F 6.6 °F 1009.0 in SSE 9.3 mph 9.3 mph 68 % 0.0 in 60.0 W/m2 SCT
17:26 12.2 °F 6.5 °F 1009.4 in SSE 19.3 mph 19.3 mph 68 % 0.0 in 49.0 W/m2 SCT
17:32 12.2 °F 6.4 °F 1009.4 in SSE 11.3 mph 11.3 mph 68 % 0.0 in 42.0 W/m2 BKN
17:37 12.0 °F 6.5 °F 1009.4 in SSE 8.0 mph 8.0 mph 69 % 0.0 in 33.0 W/m2 BKN
17:47 11.8 °F 6.3 °F 1009.4 in SSE 7.4 mph 7.9 mph 69 % 0.0 in 23.0 W/m2 BKN
17:52 11.7 °F 6.4 °F 1009.4 in SSE 13.0 mph 13.0 mph 70 % 0.0 in 18.0 W/m2 BKN
17:57 11.6 °F 6.5 °F 1009.4 in SSE 5.6 mph 5.6 mph 71 % 0.0 in 12.0 W/m2 BKN
18:02 11.4 °F 6.3 °F 1009.4 in SE 5.6 mph 5.6 mph 71 % 0.0 in 7.0 W/m2 BKN
18:07 11.2 °F 6.5 °F 1009.7 in SE 9.7 mph 9.7 mph 73 % 0.0 in 0.0 W/m2 OVC
18:12 11.1 °F 6.6 °F 1009.4 in SSE 11.1 mph 11.1 mph 74 % 0.0 in 0.0 W/m2 OVC
18:17 11.0 °F 6.6 °F 1009.4 in SSE 13.0 mph 13.0 mph 74 % 0.0 in 0.0 W/m2 OVC
18:22 10.9 °F 6.7 °F 1009.4 in SE 13.0 mph 13.0 mph 75 % 0.0 in 0.0 W/m2 CLR
18:27 10.8 °F 6.6 °F 1009.7 in SE 5.6 mph 6.0 mph 75 % 0.0 in 0.0 W/m2 CLR
18:32 10.7 °F 6.7 °F 1009.7 in SSE 7.4 mph 7.4 mph 76 % 0.0 in 0.0 W/m2 CLR
18:37 10.6 °F 6.5 °F 1009.7 in SSE 5.6 mph 5.6 mph 76 % 0.0 in 0.0 W/m2 CLR
18:42 10.5 °F 6.4 °F 1009.7 in SE 14.8 mph 14.8 mph 76 % 0.0 in 0.0 W/m2 CLR
18:47 10.3 °F 6.5 °F 1009.7 in SE 8.0 mph 8.0 mph 77 % 0.0 in 0.0 W/m2 CLR
18:52 10.1 °F 6.4 °F 1010.0 in SE 9.3 mph 9.3 mph 78 % 0.0 in 0.0 W/m2 CLR
18:57 10.0 °F 6.5 °F 1010.0 in SE 7.4 mph 7.4 mph 79 % 0.0 in 0.0 W/m2 CLR
19:02 9.9 °F 6.4 °F 1010.0 in SE 9.7 mph 9.7 mph 79 % 0.0 in 0.0 W/m2 CLR
19:07 9.8 °F 6.6 °F 1010.0 in SE 11.1 mph 11.1 mph 80 % 0.0 in 0.0 W/m2 CLR
19:12 9.8 °F 6.5 °F 1010.0 in SE 11.1 mph 11.1 mph 80 % 0.0 in 0.0 W/m2 CLR
19:17 9.7 °F 6.4 °F 1010.0 in SE 7.4 mph 7.4 mph 80 % 0.0 in 0.0 W/m2 CLR
19:22 9.7 °F 6.4 °F 1010.0 in Calm     80 % 0.0 in 0.0 W/m2 CLR
19:27 9.6 °F 6.4 °F 1010.0 in Calm     81 % 0.0 in 0.0 W/m2 CLR
19:32 9.4 °F 6.3 °F 1010.4 in Calm     81 % 0.0 in 0.0 W/m2 CLR
19:37 9.3 °F 6.2 °F 1010.4 in Calm     81 % 0.0 in 0.0 W/m2 CLR
19:42 9.1 °F 6.0 °F 1010.4 in Calm     81 % 0.0 in 0.0 W/m2 CLR
19:47 8.8 °F 5.9 °F 1010.4 in Calm     82 % 0.0 in 0.0 W/m2 CLR
19:52 8.6 °F 6.1 °F 1010.4 in Calm     84 % 0.0 in 0.0 W/m2 CLR
19:57 8.5 °F 5.9 °F 1010.4 in Calm     84 % 0.0 in 0.0 W/m2 CLR
20:02 8.4 °F 5.9 °F 1010.4 in Calm     84 % 0.0 in 0.0 W/m2 CLR
20:07 8.4 °F 6.0 °F 1010.4 in Calm     85 % 0.0 in 0.0 W/m2 CLR
20:12 8.1 °F 5.6 °F 1010.4 in Calm     84 % 0.0 in 0.0 W/m2 CLR
20:17 7.8 °F 5.4 °F 1010.4 in Calm     85 % 0.0 in 0.0 W/m2 CLR
20:22 7.6 °F 5.2 °F 1010.7 in Calm     85 % 0.0 in 0.0 W/m2 CLR
20:27 7.5 °F 5.3 °F 1010.7 in Calm     86 % 0.0 in 0.0 W/m2 CLR
20:32 7.4 °F 5.4 °F 1010.7 in Calm     87 % 0.0 in 0.0 W/m2 CLR
20:37 7.0 °F 4.8 °F 1010.7 in Calm     86 % 0.0 in 0.0 W/m2 CLR
20:42 6.7 °F 4.6 °F 1010.7 in Calm     86 % 0.0 in 0.0 W/m2 CLR
20:47 6.6 °F 4.6 °F 1010.7 in Calm     87 % 0.0 in 0.0 W/m2 CLR
20:52 6.3 °F 4.5 °F 1010.7 in Calm     88 % 0.0 in 0.0 W/m2 CLR
20:57 6.3 °F 4.6 °F 1010.7 in Calm     89 % 0.0 in 0.0 W/m2 CLR
21:02 6.2 °F 4.5 °F 1010.7 in Calm     89 % 0.0 in 0.0 W/m2 CLR
21:07 6.1 °F 4.4 °F 1010.7 in Calm     89 % 0.0 in 0.0 W/m2 CLR
21:12 6.1 °F 4.6 °F 1010.7 in Calm     90 % 0.0 in 0.0 W/m2 CLR
21:17 6.1 °F 4.4 °F 1011.1 in Calm     89 % 0.0 in 0.0 W/m2 CLR
21:22 5.8 °F 4.1 °F 1011.1 in Calm     89 % 0.0 in 0.0 W/m2 CLR
21:27 5.7 °F 4.2 °F 1011.1 in Calm     90 % 0.0 in 0.0 W/m2 CLR
21:32 5.7 °F 4.2 °F 1011.1 in Calm     90 % 0.0 in 0.0 W/m2 CLR
21:37 5.7 °F 4.2 °F 1011.1 in WNW 5.6 mph 5.6 mph 90 % 0.0 in 0.0 W/m2 CLR
21:42 6.7 °F 5.5 °F 1011.1 in West 9.3 mph 9.3 mph 92 % 0.0 in 0.0 W/m2 CLR
21:47 6.8 °F 5.3 °F 1011.1 in Calm     90 % 0.0 in 0.0 W/m2 CLR
21:52 6.8 °F 5.3 °F 1011.1 in WSW 4.8 mph 4.8 mph 90 % 0.0 in 0.0 W/m2 CLR
21:57 6.8 °F 5.3 °F 1011.1 in Calm     90 % 0.0 in 0.0 W/m2 CLR
22:02 7.0 °F 5.4 °F 1011.4 in Calm     90 % 0.0 in 0.0 W/m2 CLR
22:07 7.1 °F 5.6 °F 1011.4 in Calm     90 % 0.0 in 0.0 W/m2 CLR
22:12 7.0 °F 5.3 °F 1011.4 in Calm     89 % 0.0 in 0.0 W/m2 CLR
22:17 7.1 °F 5.4 °F 1011.4 in Calm     89 % 0.0 in 0.0 W/m2 CLR
22:22 7.1 °F 5.4 °F 1011.4 in Calm     89 % 0.0 in 0.0 W/m2 CLR
22:27 7.1 °F 5.4 °F 1011.4 in Calm     89 % 0.0 in 0.0 W/m2 CLR
22:32 7.1 °F 5.4 °F 1011.7 in Calm     89 % 0.0 in 0.0 W/m2 CLR
22:37 7.1 °F 5.4 °F 1011.7 in Calm     89 % 0.0 in 0.0 W/m2 CLR
22:42 7.1 °F 5.4 °F 1011.4 in Calm     89 % 0.0 in 0.0 W/m2 CLR
22:47 7.7 °F 5.9 °F 1011.4 in West 14.8 mph 14.8 mph 89 % 0.0 in 0.0 W/m2 CLR
22:52 8.3 °F 6.1 °F 1011.4 in West 16.7 mph 16.7 mph 86 % 0.0 in 0.0 W/m2 CLR
22:57 8.5 °F 5.9 °F 1011.4 in West 18.5 mph 18.5 mph 84 % 0.0 in 0.0 W/m2 CLR
23:02 8.6 °F 5.7 °F 1011.7 in WNW 13.0 mph 13.0 mph 82 % 0.0 in 0.0 W/m2 CLR
23:07 8.6 °F 5.6 °F 1011.7 in WNW 22.2 mph 22.2 mph 81 % 0.0 in 0.0 W/m2 CLR
23:12 8.7 °F 5.4 °F 1011.7 in West 27.8 mph 27.8 mph 80 % 0.0 in 0.0 W/m2 CLR
23:18 8.7 °F 5.4 °F 1011.7 in West 22.2 mph 22.2 mph 80 % 0.0 in 0.0 W/m2 CLR
23:23 8.7 °F 5.8 °F 1011.7 in West 22.2 mph 22.2 mph 82 % 0.0 in 0.0 W/m2 CLR
23:28 8.6 °F 5.9 °F 1011.7 in West 22.5 mph 22.5 mph 83 % 0.0 in 0.0 W/m2 CLR
23:33 8.6 °F 6.2 °F 1011.7 in WNW 22.2 mph 22.2 mph 85 % 0.0 in 0.0 W/m2 CLR
23:38 8.5 °F 6.3 °F 1011.7 in WNW 22.5 mph 22.5 mph 86 % 0.0 in 0.0 W/m2 CLR
23:43 8.4 °F 6.2 °F 1011.7 in WNW 22.2 mph 22.2 mph 86 % 0.0 in 0.0 W/m2 CLR
23:49 8.4 °F 6.2 °F 1011.7 in WNW 24.1 mph 24.1 mph 86 % 0.0 in 0.0 W/m2 CLR
23:54 8.3 °F 6.1 °F 1012.1 in WNW 24.1 mph 24.1 mph 86 % 0.0 in 0.0 W/m2 CLR
23:55 8.3 °F 6.1 °F 1011.7 in WNW 27.8 mph 27.8 mph 86 % 0.0 in 0.0 W/m2 CLR
23:58 8.3 °F 6.1 °F 1011.7 in WNW 25.9 mph 25.9 mph 86 % 0.0 in 0.0 W/m2 CLR
Lo Temps de Massalio
Compliments of Weather Underground - 1.25 mb